VTUU/UBP METAR and TAF weather

Enter ICAO airport designator
Station Type Date Time Source
VTUU METAR 2019/08/25 03:00 UTC NOAA

VTUU 250300Z 24008KT 7000 -RA BKN010 OVC020 26/25 Q1008 NOSIG


Station Type Date Time Source
VTUU Decoded METAR 2019/08/25 03:00 UTC NOAA

Station name not available
Aug 24, 2019 - 11:00 PM EDT / 2019.08.25 0300 UTC
Wind: from the WSW (240 degrees) at 9 MPH (8 KT):0
Visibility: 4 mile(s):0
Sky conditions: overcast
Weather: light rain
Temperature: 78 F (26 C)
Dew Point: 77 F (25 C)
Relative Humidity: 94%
Pressure (altimeter): 29.77 in. Hg (1008 hPa)
ob: VTUU 250300Z 24008KT 7000 -RA BKN010 OVC020 26/25 Q1008 NOSIG
cycle: 3

Station Type Date Time Source
VTUU TAF 2019/08/24 18:38 UTC NOAA

TAF VTUU 241700Z 2418/2518 24005KT 9000 SCT025 BKN080
TEMPO 2422/2501 23012KT 5000 TSRA FEW018CB SCT025 BKN080

Example: see airport list